Time;durP1;ratioP1;P1;durP2;ratioP2;P2;SDS_P1;SDS_P2;PMS_P1;PMS_P2;Temp;Humidity;BMP_temperature;BMP_pressure;BME280_temperature;BME280_humidity;BME280_pressure;Samples;Min_cycle;Max_cycle;Signal;HPM_P1;HPM_P2
2021/03/10 00:01:17;;;;;;;10.10;5.03;;;-15.50;66.40;;;;;;5047397;28;20025;-80
2021/03/10 00:03:42;;;;;;;13.97;6.50;;;-15.60;66.50;;;;;;5043214;28;20100;-81
2021/03/10 00:06:08;;;;;;;13.47;8.00;;;-15.50;66.90;;;;;;5018209;28;20118;-80
2021/03/10 00:08:34;;;;;;;10.87;5.37;;;-15.60;67.10;;;;;;5046238;28;20071;-79
2021/03/10 00:11:00;;;;;;;8.60;5.17;;;-15.60;67.00;;;;;;5041719;28;20048;-79
2021/03/10 00:13:25;;;;;;;7.97;4.57;;;-15.60;66.80;;;;;;5049985;28;20025;-81
2021/03/10 00:15:51;;;;;;;11.30;6.68;;;-15.60;67.00;;;;;;5045442;28;20026;-81
2021/03/10 00:18:17;;;;;;;8.70;6.23;;;-15.70;66.80;;;;;;5045539;28;20025;-82
2021/03/10 00:20:53;;;;;;;17.23;6.43;;;-15.70;67.10;;;;;;5041484;28;20074;-81
2021/03/10 00:23:19;;;;;;;16.10;7.82;;;-15.70;67.00;;;;;;5049736;28;20466;-82
2021/03/10 00:25:44;;;;;;;15.83;7.47;;;-15.70;67.10;;;;;;5029284;28;20501;-81
2021/03/10 00:28:10;;;;;;;8.73;5.73;;;-15.80;67.10;;;;;;5028858;28;20286;-79
2021/03/10 00:30:36;;;;;;;18.40;8.03;;;-15.80;67.30;;;;;;5042321;28;20111;-78
2021/03/10 00:33:02;;;;;;;8.57;5.20;;;-15.90;67.10;;;;;;5055377;28;20047;-80
2021/03/10 00:35:28;;;;;;;16.43;9.93;;;-15.80;67.20;;;;;;5054622;28;20049;-80
2021/03/10 00:37:53;;;;;;;14.70;6.80;;;-15.90;67.40;;;;;;5054846;28;20136;-79
2021/03/10 00:40:20;;;;;;;11.97;5.13;;;-15.90;67.50;;;;;;5041386;28;20529;-79
2021/03/10 00:42:45;;;;;;;9.27;5.28;;;-16.00;67.50;;;;;;5054608;28;20504;-78
2021/03/10 00:45:12;;;;;;;12.20;6.17;;;-16.00;67.80;;;;;;5052924;28;20041;-79
2021/03/10 00:47:37;;;;;;;13.43;6.35;;;-16.00;67.90;;;;;;5051825;28;20036;-80
2021/03/10 00:50:04;;;;;;;13.37;7.77;;;-16.00;67.80;;;;;;5042258;28;20478;-80
2021/03/10 00:52:29;;;;;;;12.63;6.20;;;-16.00;68.20;;;;;;5046318;28;20398;-79
2021/03/10 00:54:55;;;;;;;22.90;7.87;;;-15.90;68.30;;;;;;5051223;28;20032;-79
2021/03/10 00:57:21;;;;;;;9.73;5.60;;;-16.00;68.40;;;;;;5036070;28;20025;-79
2021/03/10 00:59:46;;;;;;;8.13;5.80;;;-15.90;68.70;;;;;;5050946;28;20505;-80
2021/03/10 01:02:13;;;;;;;9.38;6.13;;;-16.00;68.70;;;;;;5046413;28;20102;-79
2021/03/10 01:04:38;;;;;;;18.20;6.80;;;-15.90;68.80;;;;;;5035408;28;20490;-79
2021/03/10 01:07:04;;;;;;;10.90;6.77;;;-15.90;69.00;;;;;;5043641;28;20148;-79
2021/03/10 01:09:30;;;;;;;13.73;7.93;;;-15.90;68.80;;;;;;5039714;28;20140;-80
2021/03/10 01:11:56;;;;;;;12.17;7.37;;;-15.90;68.50;;;;;;5049481;28;20080;-79
2021/03/10 01:14:23;;;;;;;10.63;7.30;;;-15.90;68.40;;;;;;5043499;28;20052;-78
2021/03/10 01:16:49;;;;;;;12.57;6.70;;;-16.00;68.50;;;;;;5036915;28;20116;-80
2021/03/10 01:19:15;;;;;;;13.23;7.68;;;-16.00;68.60;;;;;;5042245;28;20032;-78
2021/03/10 01:21:40;;;;;;;10.83;7.47;;;-16.00;68.80;;;;;;5008953;28;20112;-81
2021/03/10 01:24:07;;;;;;;17.57;8.60;;;-16.10;68.90;;;;;;5035252;28;20071;-80
2021/03/10 01:26:33;;;;;;;;;;;-16.00;69.00;;;;;;5035783;28;20037;-80
2021/03/10 01:28:59;;;;;;;13.53;5.47;;;-16.00;69.10;;;;;;5035153;28;19909;-79
2021/03/10 01:31:24;;;;;;;12.70;7.33;;;-16.00;69.10;;;;;;5034728;28;20018;-81
2021/03/10 01:33:50;;;;;;;18.07;7.73;;;-16.00;69.10;;;;;;5034791;28;20029;-80
2021/03/10 01:36:16;;;;;;;14.23;5.43;;;-16.10;69.10;;;;;;5035224;28;20402;-80
2021/03/10 01:38:42;;;;;;;7.87;5.43;;;-16.10;69.20;;;;;;5034984;28;20463;-79
2021/03/10 01:41:07;;;;;;;7.20;5.00;;;-16.10;69.30;;;;;;5034695;28;20026;-79
2021/03/10 01:43:33;;;;;;;9.37;5.17;;;-16.10;69.30;;;;;;5034755;28;20033;-79
2021/03/10 01:45:59;;;;;;;11.50;6.90;;;-16.10;69.50;;;;;;5034279;28;20056;-79
2021/03/10 01:48:25;;;;;;;15.40;6.57;;;-16.10;69.80;;;;;;5034835;28;20302;-80
2021/03/10 01:50:52;;;;;;;19.38;8.13;;;-16.10;69.70;;;;;;5016617;28;20458;-79
2021/03/10 01:53:18;;;;;;;24.30;9.00;;;-16.10;70.00;;;;;;5034397;28;20105;-78
2021/03/10 01:55:46;;;;;;;13.67;7.40;;;-16.20;69.90;;;;;;5032081;28;20104;-77
2021/03/10 01:58:12;;;;;;;11.55;6.45;;;-16.10;69.90;;;;;;5016300;28;20018;-76
2021/03/10 02:00:39;;;;;;;9.80;5.78;;;-16.20;69.70;;;;;;5034409;28;20037;-79
2021/03/10 02:03:05;;;;;;;;;;;-16.20;69.50;;;;;;5016959;28;20397;-78
2021/03/10 02:05:31;;;;;;;8.23;5.35;;;-16.20;69.20;;;;;;5033874;28;19913;-78
2021/03/10 02:08:02;;;;;;;13.50;7.77;;;-16.20;68.90;;;;;;5034412;28;20021;-80
2021/03/10 02:10:37;;;;;;;8.82;4.70;;;-16.30;68.80;;;;;;5034501;28;20108;-80
2021/03/10 02:13:18;;;;;;;8.43;5.03;;;-16.30;69.10;;;;;;5030577;28;20020;-79
2021/03/10 02:16:00;;;;;;;11.05;7.38;;;-16.30;69.30;;;;;;5034929;28;20021;-81
2021/03/10 02:18:52;;;;;;;11.05;5.32;;;-16.30;69.50;;;;;;5034712;28;20029;-81
2021/03/10 02:21:29;;;;;;;11.40;5.22;;;-16.30;69.50;;;;;;5019160;28;20037;-80
2021/03/10 02:24:29;;;;;;;13.73;8.02;;;-16.40;69.60;;;;;;5033830;28;20035;-80
2021/03/10 02:27:15;;;;;;;9.65;4.88;;;-16.40;69.50;;;;;;5007912;28;20032;-79
2021/03/10 02:29:42;;;;;;;18.23;9.55;;;-16.40;69.50;;;;;;5029066;28;20017;-81
2021/03/10 02:32:10;;;;;;;8.13;4.45;;;-16.40;69.50;;;;;;5033569;28;20029;-80
2021/03/10 02:34:37;;;;;;;17.95;8.40;;;-16.40;69.60;;;;;;5016461;28;20387;-79
2021/03/10 02:37:05;;;;;;;13.15;6.07;;;-16.40;69.90;;;;;;5033491;28;20013;-81
2021/03/10 02:39:31;;;;;;;18.30;7.28;;;-16.40;70.00;;;;;;5033279;28;20021;-79
2021/03/10 02:41:57;;;;;;;10.20;7.43;;;-16.40;70.10;;;;;;5032108;28;20086;-80
2021/03/10 02:44:24;;;;;;;7.03;5.23;;;-16.40;70.20;;;;;;5033263;28;20041;-80
2021/03/10 02:46:50;;;;;;;11.73;5.25;;;-16.40;70.10;;;;;;5033229;28;20017;-80
2021/03/10 02:49:17;;;;;;;12.68;5.13;;;-16.40;70.00;;;;;;5031072;28;20028;-81
2021/03/10 02:51:45;;;;;;;10.95;6.55;;;-16.50;69.90;;;;;;5032574;28;20114;-81
2021/03/10 02:54:15;;;;;;;10.00;5.57;;;-16.50;70.00;;;;;;5034036;28;20026;-78
2021/03/10 02:56:45;;;;;;;8.75;4.97;;;-16.50;70.00;;;;;;5055356;28;20505;-79
2021/03/10 02:59:12;;;;;;;18.88;7.93;;;-16.50;70.20;;;;;;5033318;28;20064;-79
2021/03/10 03:01:38;;;;;;;11.73;5.78;;;-16.50;70.20;;;;;;5033266;28;20091;-79
2021/03/10 03:04:04;;;;;;;10.30;4.90;;;-16.50;70.20;;;;;;5033276;28;20026;-79
2021/03/10 03:06:30;;;;;;;11.13;5.60;;;-16.50;70.30;;;;;;5033547;28;20022;-80
2021/03/10 03:08:56;;;;;;;9.60;5.00;;;-16.60;70.00;;;;;;5034044;28;20117;-80
2021/03/10 03:11:23;;;;;;;9.80;5.23;;;-16.60;70.10;;;;;;5017364;28;20024;-80
2021/03/10 03:13:49;;;;;;;12.07;5.28;;;-16.60;70.00;;;;;;5037852;28;20270;-81
2021/03/10 03:16:17;;;;;;;;;;;-16.60;70.00;;;;;;5048140;28;20020;-80
2021/03/10 03:18:43;;;;;;;11.25;6.43;;;-16.60;70.20;;;;;;5034238;28;20402;-81
2021/03/10 03:21:08;;;;;;;12.33;7.10;;;-16.60;70.20;;;;;;5033131;28;20113;-80
2021/03/10 03:23:35;;;;;;;18.77;7.90;;;-16.70;70.20;;;;;;5032804;28;20096;-81
2021/03/10 03:26:01;;;;;;;10.10;6.00;;;-16.70;70.30;;;;;;5032954;28;20402;-81
2021/03/10 03:28:29;;;;;;;10.97;4.50;;;-16.70;70.40;;;;;;5016735;28;20024;-82
2021/03/10 03:30:56;;;;;;;18.20;9.77;;;-16.80;70.40;;;;;;5032504;28;20258;-81
2021/03/10 03:33:27;;;;;;;13.80;7.55;;;-16.80;70.60;;;;;;5032405;28;20026;-83
2021/03/10 03:35:58;;;;;;;8.00;5.65;;;-16.90;70.50;;;;;;5032633;28;20045;-81
2021/03/10 03:38:26;;;;;;;14.73;8.35;;;-16.90;70.70;;;;;;5032626;28;20119;-84
2021/03/10 03:40:52;;;;;;;13.38;5.55;;;-16.90;71.00;;;;;;5032400;28;20122;-80
2021/03/10 03:43:19;;;;;;;14.10;8.43;;;-17.00;71.10;;;;;;5032769;28;20605;-82
2021/03/10 03:45:45;;;;;;;13.63;6.80;;;-17.00;71.20;;;;;;5014558;28;20029;-81
2021/03/10 03:48:11;;;;;;;12.32;6.38;;;-17.00;71.30;;;;;;5032218;28;20029;-80
2021/03/10 03:50:40;;;;;;;7.25;5.20;;;-17.10;71.50;;;;;;5028961;28;20025;-79
2021/03/10 03:53:06;;;;;;;15.35;6.78;;;-17.00;71.90;;;;;;5033392;28;20053;-80
2021/03/10 03:55:32;;;;;;;12.73;7.03;;;-17.00;71.80;;;;;;5034753;28;20029;-82
2021/03/10 03:57:58;;;;;;;10.63;7.30;;;-17.00;71.80;;;;;;5032917;28;20028;-80
2021/03/10 04:00:26;;;;;;;19.73;8.97;;;-17.00;71.70;;;;;;5015153;28;20042;-80
2021/03/10 04:02:52;;;;;;;15.25;6.47;;;-17.00;71.80;;;;;;5032407;28;20064;-82
2021/03/10 04:05:19;;;;;;;13.40;7.45;;;-17.00;71.90;;;;;;5032763;28;20072;-80
2021/03/10 04:07:46;;;;;;;;;;;-17.00;71.80;;;;;;5027163;28;20029;-81
2021/03/10 04:10:12;;;;;;;11.93;6.60;;;-16.90;71.90;;;;;;5032161;28;20012;-80
2021/03/10 04:12:37;;;;;;;13.47;8.87;;;-16.90;71.70;;;;;;5015638;28;20061;-81
2021/03/10 04:15:04;;;;;;;8.57;6.53;;;-16.90;71.60;;;;;;5032984;28;20045;-80
2021/03/10 04:17:29;;;;;;;11.95;6.95;;;-16.90;71.50;;;;;;5032500;28;20052;-80
2021/03/10 04:19:56;;;;;;;12.30;7.37;;;-16.90;71.50;;;;;;5032304;28;20471;-79
2021/03/10 04:22:22;;;;;;;;;;;-16.80;71.50;;;;;;5032567;28;20108;-79
2021/03/10 04:24:47;;;;;;;7.87;5.33;;;-16.80;71.40;;;;;;5029010;28;20362;-78
2021/03/10 04:27:15;;;;;;;10.97;4.73;;;-16.80;71.10;;;;;;5032370;28;20021;-81
2021/03/10 04:29:41;;;;;;;14.05;6.65;;;-16.80;71.10;;;;;;5032349;28;20028;-79
2021/03/10 04:32:07;;;;;;;17.67;7.87;;;-16.80;71.30;;;;;;5032949;28;20101;-80
2021/03/10 04:34:33;;;;;;;14.63;6.85;;;-16.80;71.50;;;;;;5042571;28;20045;-79
2021/03/10 04:36:59;;;;;;;14.67;7.23;;;-16.80;71.30;;;;;;5035212;28;20021;-80
2021/03/10 04:39:24;;;;;;;9.57;5.70;;;-16.80;71.20;;;;;;5032157;28;20075;-80
2021/03/10 04:41:50;;;;;;;19.40;8.37;;;-16.80;71.30;;;;;;5031857;28;20040;-81
2021/03/10 04:44:16;;;;;;;16.23;7.03;;;-16.80;71.20;;;;;;5030683;28;20449;-80
2021/03/10 04:46:41;;;;;;;7.00;4.83;;;-16.80;71.10;;;;;;5019777;28;20029;-80
2021/03/10 04:49:09;;;;;;;9.80;6.60;;;-16.70;71.40;;;;;;5031985;28;20030;-80
2021/03/10 04:51:35;;;;;;;10.43;7.10;;;-16.70;71.40;;;;;;5031818;28;20153;-81
2021/03/10 04:54:01;;;;;;;9.45;4.93;;;-16.70;71.10;;;;;;5031929;28;20041;-80
2021/03/10 04:56:27;;;;;;;17.20;8.50;;;-16.70;70.90;;;;;;5030861;28;20025;-80
2021/03/10 04:58:52;;;;;;;11.73;6.47;;;-16.70;71.10;;;;;;5014536;28;20046;-81
2021/03/10 05:01:18;;;;;;;15.83;7.93;;;-16.70;70.80;;;;;;5032284;28;20017;-84
2021/03/10 05:03:44;;;;;;;18.13;8.10;;;-16.80;70.90;;;;;;5032015;28;20394;-83
2021/03/10 05:06:10;;;;;;;8.13;6.03;;;-16.70;71.10;;;;;;5032847;28;20026;-84
2021/03/10 05:08:36;;;;;;;8.43;4.78;;;-16.70;70.60;;;;;;5034513;28;20022;-85
2021/03/10 05:11:02;;;;;;;18.37;7.00;;;-16.70;70.30;;;;;;5037832;28;20021;-81
2021/03/10 05:13:28;;;;;;;10.57;5.88;;;-16.80;70.30;;;;;;5035353;28;20067;-81
2021/03/10 05:15:54;;;;;;;19.85;12.68;;;-16.70;70.70;;;;;;5036140;28;20498;-82
2021/03/10 05:18:20;;;;;;;8.03;5.23;;;-16.70;70.70;;;;;;5036259;28;20029;-81
2021/03/10 05:20:45;;;;;;;8.33;5.27;;;-16.70;70.50;;;;;;5035545;28;20033;-81
2021/03/10 05:23:11;;;;;;;11.80;6.33;;;-16.80;70.50;;;;;;5035750;28;20027;-81
2021/03/10 05:25:37;;;;;;;10.67;4.87;;;-16.80;70.60;;;;;;5033186;28;20487;-81
2021/03/10 05:28:03;;;;;;;14.03;9.23;;;-16.80;70.80;;;;;;5041532;28;20029;-81
2021/03/10 05:30:29;;;;;;;9.50;5.97;;;-16.80;70.60;;;;;;5034596;28;20278;-82
2021/03/10 05:32:55;;;;;;;8.43;5.47;;;-16.80;70.00;;;;;;5034995;28;20032;-84
2021/03/10 05:35:21;;;;;;;10.73;6.83;;;-16.80;70.20;;;;;;5036810;28;20381;-80
2021/03/10 05:37:51;;;;;;;12.37;5.60;;;-16.90;69.80;;;;;;5017607;28;20029;-82
2021/03/10 05:40:18;;;;;;;11.52;6.55;;;-16.90;69.90;;;;;;5017109;28;20483;-82
2021/03/10 05:42:44;;;;;;;;;;;-16.90;70.20;;;;;;5017659;28;20494;-80
2021/03/10 05:45:11;;;;;;;5.40;3.47;;;-16.90;70.50;;;;;;5016888;28;19976;-80
2021/03/10 05:47:37;;;;;;;12.65;7.20;;;-17.00;69.70;;;;;;5034087;28;20040;-79
2021/03/10 05:50:05;;;;;;;4.97;4.50;;;-17.00;70.10;;;;;;5015829;28;20029;-78
2021/03/10 05:52:35;;;;;;;7.50;3.90;;;-17.00;70.10;;;;;;5015509;28;20520;-79
2021/03/10 05:55:02;;;;;;;8.80;4.72;;;-17.10;70.00;;;;;;5016602;28;20065;-82
2021/03/10 05:57:28;;;;;;;16.73;5.07;;;-17.10;70.10;;;;;;5034433;28;20010;-81
2021/03/10 05:59:54;;;;;;;7.80;4.67;;;-17.00;70.40;;;;;;5032129;28;20437;-80
2021/03/10 06:02:20;;;;;;;6.38;4.47;;;-17.00;70.60;;;;;;5007373;28;20235;-80
2021/03/10 06:04:46;;;;;;;13.87;5.87;;;-17.00;70.30;;;;;;5013452;28;20037;-81
2021/03/10 06:07:22;;;;;;;13.33;6.80;;;-17.00;70.30;;;;;;5033642;28;20528;-81
2021/03/10 06:09:56;;;;;;;9.15;6.15;;;-16.90;70.00;;;;;;5028339;28;20087;-80
2021/03/10 06:12:22;;;;;;;8.13;4.88;;;-16.90;70.00;;;;;;5036404;28;20025;-81
2021/03/10 06:14:58;;;;;;;11.13;6.53;;;-16.80;70.00;;;;;;5051417;28;20162;-79
2021/03/10 06:17:24;;;;;;;11.88;6.15;;;-16.80;69.90;;;;;;5040735;28;20121;-79
2021/03/10 06:19:51;;;;;;;13.40;7.23;;;-16.70;69.60;;;;;;5017664;28;20665;-79
2021/03/10 06:22:17;;;;;;;12.25;7.18;;;-16.70;69.70;;;;;;5033382;28;20022;-79
2021/03/10 06:24:43;;;;;;;12.70;5.93;;;-16.60;69.80;;;;;;5016296;28;20053;-80
2021/03/10 06:27:09;;;;;;;12.77;6.37;;;-16.60;69.50;;;;;;5032224;28;20064;-79
2021/03/10 06:29:36;;;;;;;9.20;6.18;;;-16.60;69.70;;;;;;5030476;28;20124;-80
2021/03/10 06:32:04;;;;;;;8.70;6.85;;;-16.50;68.50;;;;;;5033531;28;20061;-78
2021/03/10 06:34:30;;;;;;;10.57;4.47;;;-16.50;68.30;;;;;;5034674;28;20114;-78
2021/03/10 06:36:56;;;;;;;8.73;4.67;;;-16.50;68.30;;;;;;5034116;28;20022;-78
2021/03/10 06:39:31;;;;;;;15.30;6.80;;;-16.50;68.60;;;;;;5033920;28;20025;-79
2021/03/10 06:41:58;;;;;;;13.93;6.97;;;-16.50;68.60;;;;;;5033741;28;20084;-80
2021/03/10 06:44:26;;;;;;;8.77;5.97;;;-16.50;68.70;;;;;;5034487;28;20478;-79
2021/03/10 06:46:57;;;;;;;5.90;5.03;;;-16.40;68.40;;;;;;5015755;28;20039;-78
2021/03/10 06:49:26;;;;;;;4.75;3.70;;;-16.40;67.90;;;;;;5033745;28;20018;-77
2021/03/10 06:51:57;;;;;;;9.75;5.15;;;-16.30;67.80;;;;;;5033529;28;20067;-78
2021/03/10 06:54:24;;;;;;;5.70;2.92;;;-16.30;67.70;;;;;;5033575;28;20026;-78
2021/03/10 06:57:05;;;;;;;10.32;5.68;;;-16.20;68.00;;;;;;5015800;28;20097;-79
2021/03/10 06:59:43;;;;;;;12.02;7.53;;;-16.20;67.70;;;;;;5020468;28;20045;-79
2021/03/10 07:02:29;;;;;;;8.98;4.30;;;-16.10;67.40;;;;;;5033278;28;20041;-79
2021/03/10 07:05:00;;;;;;;6.07;4.35;;;-16.00;66.30;;;;;;5033547;28;20526;-78
2021/03/10 07:07:30;;;;;;;9.40;5.93;;;-16.00;66.60;;;;;;5033026;28;20033;-78
2021/03/10 07:09:59;;;;;;;8.02;5.43;;;-15.90;66.30;;;;;;5033731;28;20022;-79
2021/03/10 07:12:26;;;;;;;4.75;4.28;;;-15.90;65.00;;;;;;5015477;28;20132;-78
2021/03/10 07:14:52;;;;;;;10.82;5.13;;;-15.90;64.90;;;;;;5033401;28;20068;-79
2021/03/10 07:17:20;;;;;;;8.30;4.40;;;-15.90;65.40;;;;;;5015227;28;20021;-79
2021/03/10 07:19:48;;;;;;;13.60;7.15;;;-15.80;64.80;;;;;;5019270;28;20033;-80
2021/03/10 07:22:20;;;;;;;12.80;7.30;;;-15.80;64.40;;;;;;5033163;28;20101;-84
2021/03/10 07:24:59;;;;;;;8.18;5.22;;;-15.70;64.90;;;;;;5033409;28;20049;-82
2021/03/10 07:27:26;;;;;;;13.50;5.72;;;-15.60;66.10;;;;;;5034336;28;20116;-83
2021/03/10 07:29:59;;;;;;;11.35;4.32;;;-15.60;65.20;;;;;;5017417;28;20379;-82
2021/03/10 07:32:26;;;;;;;11.50;4.85;;;-15.50;65.00;;;;;;5033735;28;20026;-83
2021/03/10 07:35:04;;;;;;;9.60;6.40;;;-15.40;65.40;;;;;;5033406;28;20116;-81
2021/03/10 07:37:30;;;;;;;5.78;4.03;;;-15.30;65.60;;;;;;5033341;28;20071;-86
2021/03/10 07:40:14;;;;;;;8.60;5.40;;;-15.20;65.40;;;;;;5033052;28;20425;-79
2021/03/10 07:42:57;;;;;;;6.57;4.13;;;-15.00;64.70;;;;;;5022008;28;20386;-81
2021/03/10 07:45:29;;;;;;;6.88;4.10;;;-14.00;66.10;;;;;;5014977;28;20025;-81
2021/03/10 07:48:50;;;;;;;4.72;3.92;;;-12.30;67.80;;;;;;5032976;28;20078;-80
2021/03/10 07:51:31;;;;;;;9.00;6.40;;;-10.30;59.20;;;;;;5001476;28;20394;-80
2021/03/10 07:53:57;;;;;;;10.23;5.10;;;-8.80;55.60;;;;;;5033344;28;20025;-78
2021/03/10 07:56:50;;;;;;;10.52;5.32;;;-7.70;50.10;;;;;;5036881;28;20021;-78
2021/03/10 07:59:21;;;;;;;10.70;5.38;;;-6.80;50.50;;;;;;5035636;28;20049;-79
2021/03/10 08:01:47;;;;;;;8.57;4.43;;;-5.70;48.60;;;;;;5032588;28;20386;-80
2021/03/10 08:04:16;;;;;;;8.95;5.10;;;-5.20;46.30;;;;;;5032347;28;20446;-80
2021/03/10 08:06:46;;;;;;;6.45;4.10;;;-4.60;46.40;;;;;;5032266;28;20112;-79
2021/03/10 08:09:14;;;;;;;10.80;3.95;;;-3.90;40.30;;;;;;5032228;28;20024;-79
2021/03/10 08:11:44;;;;;;;11.90;4.90;;;-3.80;38.90;;;;;;5032344;28;20044;-80
2021/03/10 08:14:11;;;;;;;8.27;4.88;;;-3.70;35.50;;;;;;5032115;28;20052;-78
2021/03/10 08:16:50;;;;;;;10.60;5.38;;;-3.30;37.50;;;;;;5014361;28;20029;-79
2021/03/10 08:19:31;;;;;;;7.63;4.82;;;-2.40;36.30;;;;;;5031715;28;20025;-81
2021/03/10 08:21:57;;;;;;;11.15;5.40;;;-1.80;32.20;;;;;;5011126;28;20022;-80
2021/03/10 08:24:23;;;;;;;10.50;7.22;;;-1.60;32.60;;;;;;5012894;28;20029;-78
2021/03/10 08:26:57;;;;;;;8.55;5.47;;;-1.30;30.60;;;;;;5032162;28;20387;-81
2021/03/10 08:29:24;;;;;;;11.68;7.95;;;-1.30;33.10;;;;;;5033074;28;20017;-82
2021/03/10 08:31:57;;;;;;;9.48;6.70;;;-1.30;32.90;;;;;;5032416;28;20071;-81
2021/03/10 08:34:37;;;;;;;12.85;6.32;;;-1.50;33.80;;;;;;5031902;28;20034;-81
2021/03/10 08:37:08;;;;;;;9.68;5.72;;;-1.10;33.80;;;;;;5032155;28;20029;-83
2021/03/10 08:39:40;;;;;;;14.48;6.72;;;-0.70;31.40;;;;;;5032137;28;20013;-83
2021/03/10 08:42:06;;;;;;;8.85;5.18;;;-0.40;30.10;;;;;;5032229;28;20495;-81
2021/03/10 08:44:39;;;;;;;11.95;6.78;;;-0.50;29.50;;;;;;5035605;28;20029;-80
2021/03/10 08:47:21;;;;;;;12.93;8.38;;;-0.90;30.00;;;;;;5035786;28;20025;-80
2021/03/10 08:49:54;;;;;;;14.23;7.22;;;-0.90;29.80;;;;;;5035940;28;20154;-84
2021/03/10 08:52:22;;;;;;;9.15;6.05;;;-0.40;32.20;;;;;;5035528;28;20502;-83
2021/03/10 08:54:59;;;;;;;12.70;7.25;;;0.40;31.70;;;;;;5017748;28;20116;-82
2021/03/10 08:57:32;;;;;;;9.85;6.95;;;1.00;29.40;;;;;;5035538;28;20053;-82
2021/03/10 08:59:59;;;;;;;10.50;5.65;;;1.20;30.00;;;;;;5035313;28;20085;-81
2021/03/10 09:02:40;;;;;;;10.60;7.00;;;1.50;30.70;;;;;;5035463;28;20109;-82
2021/03/10 09:05:07;;;;;;;14.48;7.68;;;1.80;27.70;;;;;;5036344;28;20044;-82
2021/03/10 09:07:33;;;;;;;12.85;7.40;;;1.70;29.20;;;;;;5037415;28;20024;-79
2021/03/10 09:10:07;;;;;;;15.50;8.30;;;1.80;28.90;;;;;;5036008;28;20395;-81
2021/03/10 09:12:33;;;;;;;15.55;6.50;;;1.90;28.70;;;;;;5037254;28;20083;-88
2021/03/10 09:14:59;;;;;;;10.40;6.68;;;2.00;26.90;;;;;;5028047;28;20021;-85
2021/03/10 09:17:32;;;;;;;13.57;7.07;;;1.40;27.10;;;;;;5014492;28;20556;-85
2021/03/10 09:20:01;;;;;;;12.65;6.93;;;1.50;27.90;;;;;;5037071;28;20036;-81
2021/03/10 09:22:27;;;;;;;10.82;7.43;;;1.80;27.50;;;;;;5035226;28;20025;-80
2021/03/10 09:24:53;;;;;;;16.70;8.23;;;1.30;26.90;;;;;;5035111;28;20433;-81
2021/03/10 09:27:27;;;;;;;8.85;6.72;;;0.90;28.00;;;;;;5018554;28;20403;-79
2021/03/10 09:29:57;;;;;;;12.02;8.40;;;1.40;28.30;;;;;;5036335;28;20079;-82
2021/03/10 09:32:24;;;;;;;14.88;7.50;;;1.60;28.20;;;;;;5039246;28;20507;-82
2021/03/10 09:34:51;;;;;;;13.90;7.90;;;1.80;27.50;;;;;;5037073;28;20029;-81
2021/03/10 09:37:27;;;;;;;12.35;8.40;;;2.00;28.00;;;;;;5028784;28;20018;-82
2021/03/10 09:39:55;;;;;;;10.70;7.70;;;2.70;28.10;;;;;;5011367;28;20486;-83
2021/03/10 09:42:27;;;;;;;8.13;5.72;;;2.90;25.70;;;;;;5035381;28;20361;-82
2021/03/10 09:44:55;;;;;;;11.82;5.68;;;2.70;25.20;;;;;;5035823;28;20044;-81
2021/03/10 09:47:23;;;;;;;7.68;5.53;;;2.60;26.40;;;;;;5035057;28;20025;-84
2021/03/10 09:49:57;;;;;;;12.25;7.45;;;2.00;25.20;;;;;;5035375;28;20475;-81
2021/03/10 09:52:36;;;;;;;7.88;5.65;;;1.80;26.60;;;;;;5036867;28;20018;-84
2021/03/10 09:55:04;;;;;;;13.63;6.90;;;1.40;27.00;;;;;;5018673;28;20049;-80
2021/03/10 09:57:30;;;;;;;10.27;6.60;;;1.20;28.10;;;;;;5016225;28;20017;-82
2021/03/10 09:59:57;;;;;;;7.82;6.13;;;1.50;28.40;;;;;;5034296;28;20040;-84
2021/03/10 10:02:30;;;;;;;13.98;7.82;;;1.80;28.20;;;;;;5016712;28;20052;-82
2021/03/10 10:05:08;;;;;;;17.17;7.68;;;2.00;27.40;;;;;;5035133;28;20108;-83
2021/03/10 10:07:44;;;;;;;9.15;5.97;;;2.20;27.00;;;;;;5019940;28;20021;-83
2021/03/10 10:10:10;;;;;;;13.05;7.63;;;2.50;26.50;;;;;;5036873;28;20026;-84
2021/03/10 10:12:43;;;;;;;13.73;6.90;;;2.30;26.60;;;;;;5035504;28;20009;-83
2021/03/10 10:15:09;;;;;;;14.18;6.40;;;2.60;25.80;;;;;;5034368;28;20018;-84
2021/03/10 10:17:37;;;;;;;10.98;7.05;;;2.60;25.80;;;;;;5033980;28;20120;-84
2021/03/10 10:20:05;;;;;;;10.63;6.45;;;2.10;25.90;;;;;;5034506;28;20025;-83
2021/03/10 10:22:31;;;;;;;12.45;7.68;;;2.10;25.70;;;;;;5035825;28;20029;-82
2021/03/10 10:24:57;;;;;;;17.42;6.32;;;1.90;25.50;;;;;;5033943;28;20033;-80
2021/03/10 10:27:23;;;;;;;12.25;6.75;;;1.60;26.20;;;;;;5021239;28;20022;-81
2021/03/10 10:29:48;;;;;;;10.85;6.72;;;1.30;26.40;;;;;;5032311;28;20120;-80
2021/03/10 10:32:14;;;;;;;12.73;6.35;;;0.10;26.50;;;;;;5015631;28;20022;-82
2021/03/10 10:34:42;;;;;;;14.30;7.38;;;-1.30;26.70;;;;;;5015862;28;20045;-82
2021/03/10 10:37:08;;;;;;;8.20;6.07;;;-2.90;27.30;;;;;;5016237;28;20485;-82
2021/03/10 10:39:33;;;;;;;11.80;5.60;;;-4.50;28.60;;;;;;5034854;28;20029;-84
2021/03/10 10:41:59;;;;;;;12.63;6.65;;;-5.70;29.70;;;;;;5034573;28;20451;-82
2021/03/10 10:44:25;;;;;;;8.80;5.88;;;-6.60;31.20;;;;;;5033807;28;20406;-81
2021/03/10 10:46:51;;;;;;;8.13;6.68;;;-7.60;32.70;;;;;;5033578;28;20079;-82
2021/03/10 10:49:16;;;;;;;15.43;6.85;;;-8.40;33.70;;;;;;5034257;28;20117;-83
2021/03/10 10:51:44;;;;;;;7.95;4.68;;;-9.10;35.30;;;;;;5033997;28;20049;-83
2021/03/10 10:54:14;;;;;;;9.52;5.32;;;-9.60;36.30;;;;;;5034226;28;20108;-84
2021/03/10 10:56:40;;;;;;;8.23;5.30;;;-10.00;37.90;;;;;;5033314;28;20490;-83
2021/03/10 10:59:06;;;;;;;13.70;5.43;;;-10.30;38.00;;;;;;5034158;28;20041;-83
2021/03/10 11:01:32;;;;;;;9.68;5.40;;;-10.40;39.20;;;;;;5015947;28;20032;-82
2021/03/10 11:03:58;;;;;;;10.52;5.65;;;-10.50;39.50;;;;;;5015641;28;20398;-83
2021/03/10 11:06:23;;;;;;;7.60;5.10;;;-10.60;39.30;;;;;;5033168;28;20029;-82
2021/03/10 11:08:49;;;;;;;9.20;4.28;;;-10.60;40.20;;;;;;5033291;28;20075;-82
2021/03/10 11:11:15;;;;;;;7.82;5.50;;;-10.70;40.60;;;;;;5033281;28;20036;-83
2021/03/10 11:13:40;;;;;;;9.30;4.85;;;-10.80;40.50;;;;;;5033802;28;20017;-81
2021/03/10 11:16:06;;;;;;;8.38;5.47;;;-10.90;40.60;;;;;;5035556;28;20033;-82
2021/03/10 11:18:32;;;;;;;11.38;5.10;;;-11.10;41.00;;;;;;5033780;28;20022;-81
2021/03/10 11:20:58;;;;;;;10.73;5.53;;;-11.20;41.40;;;;;;5033264;28;20029;-83
2021/03/10 11:23:26;;;;;;;9.75;5.07;;;-11.10;41.70;;;;;;5033561;28;20013;-84
2021/03/10 11:25:52;;;;;;;7.65;6.03;;;-11.00;42.30;;;;;;5033481;28;20026;-83
2021/03/10 11:28:18;;;;;;;11.02;4.80;;;-11.00;42.40;;;;;;5016194;28;20018;-83
2021/03/10 11:30:44;;;;;;;12.43;4.75;;;-11.00;41.90;;;;;;5033741;28;20037;-83
2021/03/10 11:33:09;;;;;;;9.10;4.70;;;-11.10;41.60;;;;;;5032554;28;20129;-81
2021/03/10 11:35:35;;;;;;;13.50;5.82;;;-11.10;42.40;;;;;;5033152;28;20564;-83
2021/03/10 11:38:01;;;;;;;10.15;4.40;;;-11.10;42.80;;;;;;5015257;28;20017;-84
2021/03/10 11:40:30;;;;;;;7.10;3.47;;;-11.00;42.90;;;;;;5034492;28;20026;-87
2021/03/10 11:42:56;;;;;;;8.70;4.85;;;-11.00;42.20;;;;;;5033575;28;20025;-85
2021/03/10 11:45:24;;;;;;;8.27;4.32;;;-11.10;42.10;;;;;;5034429;28;20045;-86
2021/03/10 11:47:50;;;;;;;11.80;4.57;;;-11.10;42.40;;;;;;5034763;28;20474;-86
2021/03/10 11:50:16;;;;;;;6.40;5.53;;;-11.00;42.20;;;;;;5032708;28;20025;-83
2021/03/10 11:52:42;;;;;;;5.05;3.58;;;-11.10;42.10;;;;;;5033475;28;20104;-83
2021/03/10 11:55:10;;;;;;;5.93;3.80;;;-11.10;41.60;;;;;;5033069;28;20037;-84
2021/03/10 11:57:37;;;;;;;8.40;3.60;;;-11.10;41.50;;;;;;5033566;28;20259;-84
2021/03/10 12:00:04;;;;;;;6.15;3.40;;;-11.20;42.10;;;;;;5019674;28;20042;-84
2021/03/10 12:02:30;;;;;;;10.18;4.40;;;-11.20;42.20;;;;;;5018013;28;20049;-85
2021/03/10 12:04:56;;;;;;;6.65;3.55;;;-11.10;42.10;;;;;;5016293;28;20029;-85
2021/03/10 12:07:24;;;;;;;11.57;4.65;;;-11.00;41.60;;;;;;5033434;28;20021;-85
2021/03/10 12:09:51;;;;;;;5.90;3.92;;;-10.90;41.50;;;;;;5015142;28;20387;-82
2021/03/10 12:12:17;;;;;;;7.10;5.38;;;-10.90;41.60;;;;;;5015747;28;20022;-85
2021/03/10 12:14:44;;;;;;;8.95;4.78;;;-10.90;42.40;;;;;;5015515;28;20029;-84
2021/03/10 12:17:12;;;;;;;4.45;4.05;;;-10.90;42.40;;;;;;5032797;28;20382;-85
2021/03/10 12:19:39;;;;;;;7.93;4.40;;;-10.80;42.30;;;;;;5036017;28;20037;-86
2021/03/10 12:22:07;;;;;;;7.20;4.78;;;-10.90;41.20;;;;;;5019084;28;20124;-85
2021/03/10 12:24:33;;;;;;;7.25;3.08;;;-11.00;41.00;;;;;;5037945;28;20189;-85
2021/03/10 12:26:59;;;;;;;6.97;3.83;;;-11.10;41.30;;;;;;5037616;28;20100;-86
2021/03/10 12:29:25;;;;;;;6.80;3.38;;;-11.20;41.80;;;;;;5019296;28;20040;-84
2021/03/10 12:31:50;;;;;;;9.23;4.68;;;-11.20;41.80;;;;;;5020444;28;20056;-89
2021/03/10 12:34:16;;;;;;;8.48;4.65;;;-11.10;41.50;;;;;;5020880;28;20477;-89
2021/03/10 12:36:42;;;;;;;5.22;3.00;;;-11.10;41.60;;;;;;5019912;28;20034;-87
2021/03/10 12:39:08;;;;;;;9.52;4.57;;;-11.00;42.00;;;;;;5039317;28;20030;-90
2021/03/10 12:41:34;;;;;;;10.18;3.92;;;-11.00;40.90;;;;;;5043006;28;20037;-85